USAV Winfield Scott — ADTJ — position and weather

sailwx.info

Track history (hours):
 
Tides and Currents Weather Stations Pressure Air Temp Water Temp Dewpoint Dewpoint Depression Visibility Wind Speed Wind Dir Waves Ship Positions

USAV Winfield Scott

Last reported at 2018-Mar-16 22:20 UTC. Time now 2018-Apr-20 22:16 UTC.
Position N 36°60' W 076°27'.
Warning: this ship's position is 34 days out of date.

; draft 6 m.

Type: Military. MMSI: 368705000.

Date/timePositionNaut miles runAvg speedWind from/ knotsBaromVisibWave heightAir tempDewpointWater temp
2018-Mar-16 22:20N 36°60' W 076°27'2 6.1
2018-Mar-16 21:57N 36°58' W 076°26'3 5.8
2018-Mar-16 21:28N 36°57' W 076°22'3 6.3
2018-Mar-16 20:59N 36°59' W 076°19'2 4.2
2018-Mar-16 20:29N 37°00' W 076°17'2 4.5
2018-Mar-16 19:59N 37°00' W 076°14'2 3.0
2018-Mar-16 19:23N 36°60' W 076°12'1 3.4
2018-Mar-16 18:59N 36°59' W 076°11'2 3.6
2018-Mar-16 18:29N 36°57' W 076°10'2 3.5
2018-Mar-16 17:50N 36°55' W 076°11'0 0.5
2018-Mar-16 17:30N 36°55' W 076°11'3 6.0
2018-Mar-16 16:56N 36°58' W 076°10'5 9.8
2018-Mar-16 16:28N 37°00' W 076°16'5 9.5
2018-Mar-16 15:59N 36°57' W 076°20'5 9.5
2018-Mar-16 15:30N 36°53' W 076°20'0 0.2
2018-Mar-16 14:59N 36°53' W 076°20'0 0.0
2018-Mar-16 11:40N 36°53' W 076°20'0 2.2
2018-Mar-16 11:30N 36°53' W 076°20'4 0.2
2018-Mar-15 19:43N 36°56' W 076°22'0 1.8
2018-Mar-15 19:28N 36°57' W 076°22'4 8.3
2018-Mar-15 19:00N 36°58' W 076°26'1 0.0
2018-Mar-14 18:18N 36°59' W 076°27'2 4.2
2018-Mar-14 17:51N 36°58' W 076°26'4 4.4
2018-Mar-14 16:57N 36°59' W 076°21'2 4.6
2018-Mar-14 16:30N 36°60' W 076°19'2 3.5
2018-Mar-14 15:59N 37°00' W 076°16'2 3.5
2018-Mar-14 15:27N 37°00' W 076°14'2 3.7
2018-Mar-14 14:51N 36°59' W 076°11'2 3.1
2018-Mar-14 14:13N 36°58' W 076°10'1 4.3
2018-Mar-14 13:57N 36°57' W 076°11'1 2.8
2018-Mar-14 13:26N 36°55' W 076°11'0 0.2
2018-Mar-14 12:58N 36°55' W 076°11'0 0.4
2018-Mar-14 12:28N 36°55' W 076°11'0 0.0
2018-Mar-14 11:55N 36°55' W 076°11'0 0.0
2018-Mar-14 11:28N 36°55' W 076°11'0 0.0
2018-Mar-14 10:58N 36°55' W 076°11'0 0.0
2018-Mar-14 10:28N 36°55' W 076°11'0 0.0
2018-Mar-14 09:52N 36°55' W 076°11'0 0.0
2018-Mar-14 09:28N 36°55' W 076°11'0 0.0
2018-Mar-14 08:55N 36°55' W 076°11'0 0.0
2018-Mar-14 08:25N 36°55' W 076°11'0 0.0
2018-Mar-14 07:58N 36°55' W 076°11'0 0.0
2018-Mar-14 07:28N 36°55' W 076°11'0 0.0
2018-Mar-14 06:58N 36°55' W 076°11'0 0.0
2018-Mar-14 06:28N 36°55' W 076°11'0 0.0
2018-Mar-14 05:55N 36°55' W 076°11'0 0.0
2018-Mar-14 05:25N 36°55' W 076°11'0 0.0
2018-Mar-14 04:58N 36°55' W 076°11'0 0.0
2018-Mar-14 04:25N 36°55' W 076°11'0 0.0
2018-Mar-14 03:52N 36°55' W 076°11'0 0.0
2018-Mar-14 03:28N 36°55' W 076°11'0 0.0
2018-Mar-14 02:58N 36°55' W 076°11'0 0.0
2018-Mar-14 02:28N 36°55' W 076°11'0 0.0
2018-Mar-13 23:07N 36°55' W 076°11'0 0.0
2018-Mar-13 22:52N 36°55' W 076°11'0 0.0
2018-Mar-13 22:22N 36°55' W 076°11'0 0.0
2018-Mar-13 21:49N 36°55' W 076°11'0 0.0
2018-Mar-13 21:07N 36°55' W 076°11'0 0.0
2018-Mar-13 20:58N 36°55' W 076°11'0 0.0
2018-Mar-13 20:25N 36°55' W 076°11'0 0.0
2018-Mar-13 19:52N 36°55' W 076°11'0 0.5
2018-Mar-13 19:29N 36°55' W 076°11'0 0.3
2018-Mar-13 18:59N 36°55' W 076°11'0 0.1
2018-Mar-13 18:30N 36°55' W 076°11'0 0.3
2018-Mar-13 17:58N 36°55' W 076°11'0 0.0
2018-Mar-13 17:28N 36°55' W 076°11'0 0.0
2018-Mar-13 16:58N 36°55' W 076°11'0 0.0
2018-Mar-13 16:28N 36°55' W 076°11'0 0.0
2018-Mar-13 15:58N 36°55' W 076°11'0 0.0
2018-Mar-13 15:28N 36°55' W 076°11'0 0.0
2018-Mar-13 14:58N 36°55' W 076°11'0 0.0
2018-Mar-13 14:28N 36°55' W 076°11'0 0.0
2018-Mar-13 13:58N 36°55' W 076°11'0 0.0
2018-Mar-13 13:28N 36°55' W 076°11'0 0.0
2018-Mar-13 12:58N 36°55' W 076°11'0 0.0
2018-Mar-13 12:28N 36°55' W 076°11'0 0.0
2018-Mar-13 11:58N 36°55' W 076°11'0 0.0
2018-Mar-13 11:28N 36°55' W 076°11'0 0.0
2018-Mar-13 10:40N 36°55' W 076°11'0 0.0
2018-Mar-13 10:10N 36°55' W 076°11'0 0.0
2018-Mar-13 09:58N 36°55' W 076°11'0 0.0
2018-Mar-13 09:28N 36°55' W 076°11'0 0.0
2018-Mar-13 08:19N 36°55' W 076°11'0 0.0
2018-Mar-13 07:58N 36°55' W 076°11'0 0.0
2018-Mar-13 07:22N 36°55' W 076°11'0 0.0
2018-Mar-13 06:55N 36°55' W 076°11'0 0.0
2018-Mar-13 06:28N 36°55' W 076°11'0 0.0
2018-Mar-13 05:58N 36°55' W 076°11'0 0.0
2018-Mar-13 05:28N 36°55' W 076°11'0 0.0
2018-Mar-13 04:58N 36°55' W 076°11'0 0.0
2018-Mar-13 04:28N 36°55' W 076°11'0 0.0
2018-Mar-13 03:55N 36°55' W 076°11'0 0.0
2018-Mar-13 03:25N 36°55' W 076°11'0 0.0
2018-Mar-13 02:58N 36°55' W 076°11'0 0.0
2018-Mar-13 02:28N 36°55' W 076°11'0 0.0
2018-Mar-13 01:55N 36°55' W 076°11'0 0.0
2018-Mar-13 01:25N 36°55' W 076°11'0 0.0
2018-Mar-13 00:55N 36°55' W 076°11'0 0.0
2018-Mar-13 00:22N 36°55' W 076°11'0 0.0
2018-Mar-12 23:58N 36°55' W 076°11'0 0.0
2018-Mar-12 23:25N 36°55' W 076°11'0 0.0
2018-Mar-12 22:52N 36°55' W 076°11'0 0.0
2018-Mar-12 22:28N 36°55' W 076°11'0 0.0
2018-Mar-12 21:58N 36°55' W 076°11'0 0.0
2018-Mar-12 21:28N 36°55' W 076°11'0 0.0
2018-Mar-12 20:58N 36°55' W 076°11'0 0.0
2018-Mar-12 20:28N 36°55' W 076°11'0 0.0
2018-Mar-12 19:58N 36°55' W 076°11'0 0.0
2018-Mar-12 19:28N 36°55' W 076°11'0 0.0
2018-Mar-12 18:58N 36°55' W 076°11'0 0.0
2018-Mar-12 18:28N 36°55' W 076°11'0 0.0
2018-Mar-12 17:58N 36°55' W 076°11'0 0.0
2018-Mar-12 17:28N 36°55' W 076°11'0 0.0
2018-Mar-12 16:58N 36°55' W 076°11'0 0.0
2018-Mar-12 16:28N 36°55' W 076°11'0 0.0
2018-Mar-12 15:58N 36°55' W 076°11'0 0.0
2018-Mar-12 15:28N 36°55' W 076°11'0 0.0
2018-Mar-12 14:58N 36°55' W 076°11'0 0.0
2018-Mar-12 14:28N 36°55' W 076°11'0 0.0
2018-Mar-12 13:55N 36°55' W 076°11'0 0.0
2018-Mar-12 13:28N 36°55' W 076°11'0 0.0
2018-Mar-12 12:58N 36°55' W 076°11'0 0.0
2018-Mar-12 12:28N 36°55' W 076°11'0 0.0
2018-Mar-12 11:58N 36°55' W 076°11'0 0.0
2018-Mar-12 11:28N 36°55' W 076°11'0 0.0
2018-Mar-12 10:49N 36°55' W 076°11'0 0.0
2018-Mar-12 10:25N 36°55' W 076°11'0 0.0
2018-Mar-12 09:55N 36°55' W 076°11'0 0.0
2018-Mar-12 09:10N 36°55' W 076°11'0 0.0
2018-Mar-12 08:49N 36°55' W 076°11'0 0.0
2018-Mar-12 08:13N 36°55' W 076°11'0 0.0
2018-Mar-12 07:58N 36°55' W 076°11'0 0.0
2018-Mar-12 06:58N 36°55' W 076°11'0 0.0
2018-Mar-12 05:52N 36°55' W 076°11'0 0.0
2018-Mar-12 05:25N 36°55' W 076°11'0 0.0
2018-Mar-12 04:46N 36°55' W 076°11'0 0.0
2018-Mar-12 04:28N 36°55' W 076°11'0 0.0
2018-Mar-12 03:58N 36°55' W 076°11'0 0.0
2018-Mar-12 03:16N 36°55' W 076°11'0 0.0
2018-Mar-12 02:58N 36°55' W 076°11'0 0.0
2018-Mar-12 02:28N 36°55' W 076°11'0 0.0
2018-Mar-12 01:52N 36°55' W 076°11'0 0.0
2018-Mar-12 01:16N 36°55' W 076°11'0 0.0
2018-Mar-12 00:52N 36°55' W 076°11'0 0.0
2018-Mar-12 00:28N 36°55' W 076°11'0 0.0
2018-Mar-11 23:40N 36°55' W 076°11'0 0.0
2018-Mar-11 23:28N 36°55' W 076°11'0 0.0
2018-Mar-11 22:58N 36°55' W 076°11'0 0.0
2018-Mar-11 22:19N 36°55' W 076°11'0 0.0
2018-Mar-11 21:58N 36°55' W 076°11'0 0.0
2018-Mar-11 21:28N 36°55' W 076°11'0 0.0
2018-Mar-11 20:46N 36°55' W 076°11'0 0.0
2018-Mar-11 20:28N 36°55' W 076°11'0 0.0
2018-Mar-11 19:58N 36°55' W 076°11'0 0.0
2018-Mar-11 19:28N 36°55' W 076°11'0 0.0
2018-Mar-11 18:58N 36°55' W 076°11'0 0.0
2018-Mar-11 18:28N 36°55' W 076°11'0 0.0
2018-Mar-11 17:58N 36°55' W 076°11'0 0.0
2018-Mar-11 17:28N 36°55' W 076°11'0 0.0
2018-Mar-11 16:58N 36°55' W 076°11'0 0.0
2018-Mar-11 16:28N 36°55' W 076°11'0 0.0
2018-Mar-11 15:58N 36°55' W 076°11'0 0.0
2018-Mar-11 15:28N 36°55' W 076°11'0 0.0
2018-Mar-11 14:58N 36°55' W 076°11'0 0.0
2018-Mar-11 14:28N 36°55' W 076°11'0 0.0
2018-Mar-11 13:58N 36°55' W 076°11'0 0.0
2018-Mar-11 13:28N 36°55' W 076°11'0 0.0
2018-Mar-11 12:58N 36°55' W 076°11'0 0.0
2018-Mar-11 12:28N 36°55' W 076°11'0 0.0
2018-Mar-11 11:58N 36°55' W 076°11'0 0.0
2018-Mar-11 11:28N 36°55' W 076°11'0 0.0
2018-Mar-11 10:58N 36°55' W 076°11'0 0.0
2018-Mar-11 10:28N 36°55' W 076°11'0 0.0
2018-Mar-11 09:58N 36°55' W 076°11'0 0.0
2018-Mar-11 09:28N 36°55' W 076°11'0 0.0
2018-Mar-11 08:58N 36°55' W 076°11'0 0.0
2018-Mar-11 08:28N 36°55' W 076°11'0 0.0
2018-Mar-11 07:58N 36°55' W 076°11'0 0.0
2018-Mar-11 07:28N 36°55' W 076°11'0 0.0
2018-Mar-11 06:58N 36°55' W 076°11'0 0.0
2018-Mar-11 06:28N 36°55' W 076°11'0 0.0
2018-Mar-11 05:58N 36°55' W 076°11'0 0.0
2018-Mar-11 05:28N 36°55' W 076°11'0 0.0
2018-Mar-11 04:58N 36°55' W 076°11'0 0.0
2018-Mar-11 04:28N 36°55' W 076°11'0 0.0
2018-Mar-11 03:55N 36°55' W 076°11'0 0.0
2018-Mar-11 03:28N 36°55' W 076°11'0 0.0
2018-Mar-11 02:55N 36°55' W 076°11'0 0.0
2018-Mar-11 02:28N 36°55' W 076°11'0 0.0
2018-Mar-11 01:58N 36°55' W 076°11'0 0.0
2018-Mar-11 01:28N 36°55' W 076°11'0 0.0
2018-Mar-11 00:55N 36°55' W 076°11'0 0.0
2018-Mar-11 00:25N 36°55' W 076°11'0 0.0
2018-Mar-10 23:55N 36°55' W 076°11'0 0.0
2018-Mar-10 23:25N 36°55' W 076°11'0 0.0
2018-Mar-10 22:58N 36°55' W 076°11'0 0.0
2018-Mar-10 22:28N 36°55' W 076°11'0 0.0
2018-Mar-10 21:58N 36°55' W 076°11'0 0.0
2018-Mar-10 21:28N 36°55' W 076°11'0 0.0
2018-Mar-10 20:58N 36°55' W 076°11'1 1.8
2018-Mar-10 20:28N 36°56' W 076°11'4 8.9
2018-Mar-10 20:00N 36°58' W 076°06'3 5.7
2018-Mar-10 19:30N 36°57' W 076°03'3 5.5
2018-Mar-10 19:00N 36°58' W 076°06'5 7.7
2018-Mar-10 18:24N 36°55' W 076°11'0 0.5
2018-Mar-10 18:00N 36°55' W 076°11'4 6.4
2018-Mar-10 17:27N 36°58' W 076°09'510.8
2018-Mar-10 17:00N 36°57' W 076°04'1 2.5
2018-Mar-10 16:30N 36°57' W 076°05'1 1.6
2018-Mar-10 16:00N 36°58' W 076°06'612.0
2018-Mar-10 15:28N 37°00' W 076°13'611.8
2018-Mar-10 14:58N 36°58' W 076°20'610.4
2018-Mar-10 14:22N 37°00' W 076°28'1 0.0
2018-Mar-08 22:56N 36°60' W 076°27'2 3.4
2018-Mar-08 22:28N 36°58' W 076°27'0 1.0
2018-Mar-08 22:00N 36°58' W 076°27'4 5.9
2018-Mar-08 21:18N 36°58' W 076°22'410.4
2018-Mar-08 20:58N 36°60' W 076°18'4 6.0
2018-Mar-08 20:23N 37°01' W 076°14'  
Track history (hours):
 
Tides and Currents Weather Stations Pressure Air Temp Water Temp Dewpoint Dewpoint Depression Visibility Wind Speed Wind Dir Waves Ship Positions

USAV Winfield Scott

Last reported at 2018-Mar-16 22:20 UTC. Time now 2018-Apr-20 22:16 UTC.
Position N 36°60' W 076°27'.
Warning: this ship's position is 34 days out of date.

; draft 6 m.

Type: Military. MMSI: 368705000.

Date/timePositionNaut miles runAvg speedWind from/ knotsBaromVisibWave heightAir tempDewpointWater temp
2018-Mar-16 22:20N 36°60' W 076°27'2 6.1
2018-Mar-16 21:57N 36°58' W 076°26'3 5.8
2018-Mar-16 21:28N 36°57' W 076°22'3 6.3
2018-Mar-16 20:59N 36°59' W 076°19'2 4.2
2018-Mar-16 20:29N 37°00' W 076°17'2 4.5
2018-Mar-16 19:59N 37°00' W 076°14'2 3.0
2018-Mar-16 19:23N 36°60' W 076°12'1 3.4
2018-Mar-16 18:59N 36°59' W 076°11'2 3.6
2018-Mar-16 18:29N 36°57' W 076°10'2 3.5
2018-Mar-16 17:50N 36°55' W 076°11'0 0.5
2018-Mar-16 17:30N 36°55' W 076°11'3 6.0
2018-Mar-16 16:56N 36°58' W 076°10'5 9.8
2018-Mar-16 16:28N 37°00' W 076°16'5 9.5
2018-Mar-16 15:59N 36°57' W 076°20'5 9.5
2018-Mar-16 15:30N 36°53' W 076°20'0 0.2
2018-Mar-16 14:59N 36°53' W 076°20'0 0.0
2018-Mar-16 11:40N 36°53' W 076°20'0 2.2
2018-Mar-16 11:30N 36°53' W 076°20'4 0.2
2018-Mar-15 19:43N 36°56' W 076°22'0 1.8
2018-Mar-15 19:28N 36°57' W 076°22'4 8.3
2018-Mar-15 19:00N 36°58' W 076°26'1 0.0
2018-Mar-14 18:18N 36°59' W 076°27'2 4.2
2018-Mar-14 17:51N 36°58' W 076°26'4 4.4
2018-Mar-14 16:57N 36°59' W 076°21'2 4.6
2018-Mar-14 16:30N 36°60' W 076°19'2 3.5
2018-Mar-14 15:59N 37°00' W 076°16'2 3.5
2018-Mar-14 15:27N 37°00' W 076°14'2 3.7
2018-Mar-14 14:51N 36°59' W 076°11'2 3.1
2018-Mar-14 14:13N 36°58' W 076°10'1 4.3
2018-Mar-14 13:57N 36°57' W 076°11'1 2.8
2018-Mar-14 13:26N 36°55' W 076°11'0 0.2
2018-Mar-14 12:58N 36°55' W 076°11'0 0.4
2018-Mar-14 12:28N 36°55' W 076°11'0 0.0
2018-Mar-14 11:55N 36°55' W 076°11'0 0.0
2018-Mar-14 11:28N 36°55' W 076°11'0 0.0
2018-Mar-14 10:58N 36°55' W 076°11'0 0.0
2018-Mar-14 10:28N 36°55' W 076°11'0 0.0
2018-Mar-14 09:52N 36°55' W 076°11'0 0.0
2018-Mar-14 09:28N 36°55' W 076°11'0 0.0
2018-Mar-14 08:55N 36°55' W 076°11'0 0.0
2018-Mar-14 08:25N 36°55' W 076°11'0 0.0
2018-Mar-14 07:58N 36°55' W 076°11'0 0.0
2018-Mar-14 07:28N 36°55' W 076°11'0 0.0
2018-Mar-14 06:58N 36°55' W 076°11'0 0.0
2018-Mar-14 06:28N 36°55' W 076°11'0 0.0
2018-Mar-14 05:55N 36°55' W 076°11'0 0.0
2018-Mar-14 05:25N 36°55' W 076°11'0 0.0
2018-Mar-14 04:58N 36°55' W 076°11'0 0.0
2018-Mar-14 04:25N 36°55' W 076°11'0 0.0
2018-Mar-14 03:52N 36°55' W 076°11'0 0.0
2018-Mar-14 03:28N 36°55' W 076°11'0 0.0
2018-Mar-14 02:58N 36°55' W 076°11'0 0.0
2018-Mar-14 02:28N 36°55' W 076°11'0 0.0
2018-Mar-13 23:07N 36°55' W 076°11'0 0.0
2018-Mar-13 22:52N 36°55' W 076°11'0 0.0
2018-Mar-13 22:22N 36°55' W 076°11'0 0.0
2018-Mar-13 21:49N 36°55' W 076°11'0 0.0
2018-Mar-13 21:07N 36°55' W 076°11'0 0.0
2018-Mar-13 20:58N 36°55' W 076°11'0 0.0
2018-Mar-13 20:25N 36°55' W 076°11'0 0.0
2018-Mar-13 19:52N 36°55' W 076°11'0 0.5
2018-Mar-13 19:29N 36°55' W 076°11'0 0.3
2018-Mar-13 18:59N 36°55' W 076°11'0 0.1
2018-Mar-13 18:30N 36°55' W 076°11'0 0.3
2018-Mar-13 17:58N 36°55' W 076°11'0 0.0
2018-Mar-13 17:28N 36°55' W 076°11'0 0.0
2018-Mar-13 16:58N 36°55' W 076°11'0 0.0
2018-Mar-13 16:28N 36°55' W 076°11'0 0.0
2018-Mar-13 15:58N 36°55' W 076°11'0 0.0
2018-Mar-13 15:28N 36°55' W 076°11'0 0.0
2018-Mar-13 14:58N 36°55' W 076°11'0 0.0
2018-Mar-13 14:28N 36°55' W 076°11'0 0.0
2018-Mar-13 13:58N 36°55' W 076°11'0 0.0
2018-Mar-13 13:28N 36°55' W 076°11'0 0.0
2018-Mar-13 12:58N 36°55' W 076°11'0 0.0
2018-Mar-13 12:28N 36°55' W 076°11'0 0.0
2018-Mar-13 11:58N 36°55' W 076°11'0 0.0
2018-Mar-13 11:28N 36°55' W 076°11'0 0.0
2018-Mar-13 10:40N 36°55' W 076°11'0 0.0
2018-Mar-13 10:10N 36°55' W 076°11'0 0.0
2018-Mar-13 09:58N 36°55' W 076°11'0 0.0
2018-Mar-13 09:28N 36°55' W 076°11'0 0.0
2018-Mar-13 08:19N 36°55' W 076°11'0 0.0
2018-Mar-13 07:58N 36°55' W 076°11'0 0.0
2018-Mar-13 07:22N 36°55' W 076°11'0 0.0
2018-Mar-13 06:55N 36°55' W 076°11'0 0.0
2018-Mar-13 06:28N 36°55' W 076°11'0 0.0
2018-Mar-13 05:58N 36°55' W 076°11'0 0.0
2018-Mar-13 05:28N 36°55' W 076°11'0 0.0
2018-Mar-13 04:58N 36°55' W 076°11'0 0.0
2018-Mar-13 04:28N 36°55' W 076°11'0 0.0
2018-Mar-13 03:55N 36°55' W 076°11'0 0.0
2018-Mar-13 03:25N 36°55' W 076°11'0 0.0
2018-Mar-13 02:58N 36°55' W 076°11'0 0.0
2018-Mar-13 02:28N 36°55' W 076°11'0 0.0
2018-Mar-13 01:55N 36°55' W 076°11'0 0.0
2018-Mar-13 01:25N 36°55' W 076°11'0 0.0
2018-Mar-13 00:55N 36°55' W 076°11'0 0.0
2018-Mar-13 00:22N 36°55' W 076°11'0 0.0
2018-Mar-12 23:58N 36°55' W 076°11'0 0.0
2018-Mar-12 23:25N 36°55' W 076°11'0 0.0
2018-Mar-12 22:52N 36°55' W 076°11'0 0.0
2018-Mar-12 22:28N 36°55' W 076°11'0 0.0
2018-Mar-12 21:58N 36°55' W 076°11'0 0.0
2018-Mar-12 21:28N 36°55' W 076°11'0 0.0
2018-Mar-12 20:58N 36°55' W 076°11'0 0.0
2018-Mar-12 20:28N 36°55' W 076°11'0 0.0
2018-Mar-12 19:58N 36°55' W 076°11'0 0.0
2018-Mar-12 19:28N 36°55' W 076°11'0 0.0
2018-Mar-12 18:58N 36°55' W 076°11'0 0.0
2018-Mar-12 18:28N 36°55' W 076°11'0 0.0
2018-Mar-12 17:58N 36°55' W 076°11'0 0.0
2018-Mar-12 17:28N 36°55' W 076°11'0 0.0
2018-Mar-12 16:58N 36°55' W 076°11'0 0.0
2018-Mar-12 16:28N 36°55' W 076°11'0 0.0
2018-Mar-12 15:58N 36°55' W 076°11'0 0.0
2018-Mar-12 15:28N 36°55' W 076°11'0 0.0
2018-Mar-12 14:58N 36°55' W 076°11'0 0.0
2018-Mar-12 14:28N 36°55' W 076°11'0 0.0
2018-Mar-12 13:55N 36°55' W 076°11'0 0.0
2018-Mar-12 13:28N 36°55' W 076°11'0 0.0
2018-Mar-12 12:58N 36°55' W 076°11'0 0.0
2018-Mar-12 12:28N 36°55' W 076°11'0 0.0
2018-Mar-12 11:58N 36°55' W 076°11'0 0.0
2018-Mar-12 11:28N 36°55' W 076°11'0 0.0
2018-Mar-12 10:49N 36°55' W 076°11'0 0.0
2018-Mar-12 10:25N 36°55' W 076°11'0 0.0
2018-Mar-12 09:55N 36°55' W 076°11'0 0.0
2018-Mar-12 09:10N 36°55' W 076°11'0 0.0
2018-Mar-12 08:49N 36°55' W 076°11'0 0.0
2018-Mar-12 08:13N 36°55' W 076°11'0 0.0
2018-Mar-12 07:58N 36°55' W 076°11'0 0.0
2018-Mar-12 06:58N 36°55' W 076°11'0 0.0
2018-Mar-12 05:52N 36°55' W 076°11'0 0.0
2018-Mar-12 05:25N 36°55' W 076°11'0 0.0
2018-Mar-12 04:46N 36°55' W 076°11'0 0.0
2018-Mar-12 04:28N 36°55' W 076°11'0 0.0
2018-Mar-12 03:58N 36°55' W 076°11'0 0.0
2018-Mar-12 03:16N 36°55' W 076°11'0 0.0
2018-Mar-12 02:58N 36°55' W 076°11'0 0.0
2018-Mar-12 02:28N 36°55' W 076°11'0 0.0
2018-Mar-12 01:52N 36°55' W 076°11'0 0.0
2018-Mar-12 01:16N 36°55' W 076°11'0 0.0
2018-Mar-12 00:52N 36°55' W 076°11'0 0.0
2018-Mar-12 00:28N 36°55' W 076°11'0 0.0
2018-Mar-11 23:40N 36°55' W 076°11'0 0.0
2018-Mar-11 23:28N 36°55' W 076°11'0 0.0
2018-Mar-11 22:58N 36°55' W 076°11'0 0.0
2018-Mar-11 22:19N 36°55' W 076°11'0 0.0
2018-Mar-11 21:58N 36°55' W 076°11'0 0.0
2018-Mar-11 21:28N 36°55' W 076°11'0 0.0
2018-Mar-11 20:46N 36°55' W 076°11'0 0.0
2018-Mar-11 20:28N 36°55' W 076°11'0 0.0
2018-Mar-11 19:58N 36°55' W 076°11'0 0.0
2018-Mar-11 19:28N 36°55' W 076°11'0 0.0
2018-Mar-11 18:58N 36°55' W 076°11'0 0.0
2018-Mar-11 18:28N 36°55' W 076°11'0 0.0
2018-Mar-11 17:58N 36°55' W 076°11'0 0.0
2018-Mar-11 17:28N 36°55' W 076°11'0 0.0
2018-Mar-11 16:58N 36°55' W 076°11'0 0.0
2018-Mar-11 16:28N 36°55' W 076°11'0 0.0
2018-Mar-11 15:58N 36°55' W 076°11'0 0.0
2018-Mar-11 15:28N 36°55' W 076°11'0 0.0
2018-Mar-11 14:58N 36°55' W 076°11'0 0.0
2018-Mar-11 14:28N 36°55' W 076°11'0 0.0
2018-Mar-11 13:58N 36°55' W 076°11'0 0.0
2018-Mar-11 13:28N 36°55' W 076°11'0 0.0
2018-Mar-11 12:58N 36°55' W 076°11'0 0.0
2018-Mar-11 12:28N 36°55' W 076°11'0 0.0
2018-Mar-11 11:58N 36°55' W 076°11'0 0.0
2018-Mar-11 11:28N 36°55' W 076°11'0 0.0
2018-Mar-11 10:58N 36°55' W 076°11'0 0.0
2018-Mar-11 10:28N 36°55' W 076°11'0 0.0
2018-Mar-11 09:58N 36°55' W 076°11'0 0.0
2018-Mar-11 09:28N 36°55' W 076°11'0 0.0
2018-Mar-11 08:58N 36°55' W 076°11'0 0.0
2018-Mar-11 08:28N 36°55' W 076°11'0 0.0
2018-Mar-11 07:58N 36°55' W 076°11'0 0.0
2018-Mar-11 07:28N 36°55' W 076°11'0 0.0
2018-Mar-11 06:58N 36°55' W 076°11'0 0.0
2018-Mar-11 06:28N 36°55' W 076°11'0 0.0
2018-Mar-11 05:58N 36°55' W 076°11'0 0.0
2018-Mar-11 05:28N 36°55' W 076°11'0 0.0
2018-Mar-11 04:58N 36°55' W 076°11'0 0.0
2018-Mar-11 04:28N 36°55' W 076°11'0 0.0
2018-Mar-11 03:55N 36°55' W 076°11'0 0.0
2018-Mar-11 03:28N 36°55' W 076°11'0 0.0
2018-Mar-11 02:55N 36°55' W 076°11'0 0.0
2018-Mar-11 02:28N 36°55' W 076°11'0 0.0
2018-Mar-11 01:58N 36°55' W 076°11'0 0.0
2018-Mar-11 01:28N 36°55' W 076°11'0 0.0
2018-Mar-11 00:55N 36°55' W 076°11'0 0.0
2018-Mar-11 00:25N 36°55' W 076°11'0 0.0
2018-Mar-10 23:55N 36°55' W 076°11'0 0.0
2018-Mar-10 23:25N 36°55' W 076°11'0 0.0
2018-Mar-10 22:58N 36°55' W 076°11'0 0.0
2018-Mar-10 22:28N 36°55' W 076°11'0 0.0
2018-Mar-10 21:58N 36°55' W 076°11'0 0.0
2018-Mar-10 21:28N 36°55' W 076°11'0 0.0
2018-Mar-10 20:58N 36°55' W 076°11'1 1.8
2018-Mar-10 20:28N 36°56' W 076°11'4 8.9
2018-Mar-10 20:00N 36°58' W 076°06'3 5.7
2018-Mar-10 19:30N 36°57' W 076°03'3 5.5
2018-Mar-10 19:00N 36°58' W 076°06'5 7.7
2018-Mar-10 18:24N 36°55' W 076°11'0 0.5
2018-Mar-10 18:00N 36°55' W 076°11'4 6.4
2018-Mar-10 17:27N 36°58' W 076°09'510.8
2018-Mar-10 17:00N 36°57' W 076°04'1 2.5
2018-Mar-10 16:30N 36°57' W 076°05'1 1.6
2018-Mar-10 16:00N 36°58' W 076°06'612.0
2018-Mar-10 15:28N 37°00' W 076°13'611.8
2018-Mar-10 14:58N 36°58' W 076°20'610.4
2018-Mar-10 14:22N 37°00' W 076°28'1 0.0
2018-Mar-08 22:56N 36°60' W 076°27'2 3.4
2018-Mar-08 22:28N 36°58' W 076°27'0 1.0
2018-Mar-08 22:00N 36°58' W 076°27'4 5.9
2018-Mar-08 21:18N 36°58' W 076°22'410.4
2018-Mar-08 20:58N 36°60' W 076°18'4 6.0
2018-Mar-08 20:23N 37°01' W 076°14'  

Dump ship's entire track history